sensor_id;sensor_type;location;lat;lon;timestamp;temperature;humidity
8824;DHT22;4448;50.904;4.694;2022-09-13T00:01:45;19.70;99.90
8824;DHT22;4448;50.904;4.694;2022-09-13T00:04:11;19.70;99.90
8824;DHT22;4448;50.904;4.694;2022-09-13T00:06:36;19.70;99.90
8824;DHT22;4448;50.904;4.694;2022-09-13T00:09:03;19.70;99.90
8824;DHT22;4448;50.904;4.694;2022-09-13T00:11:29;19.70;99.90
8824;DHT22;4448;50.904;4.694;2022-09-13T00:13:56;19.70;99.90
8824;DHT22;4448;50.904;4.694;2022-09-13T00:16:26;19.70;99.90
8824;DHT22;4448;50.904;4.694;2022-09-13T00:18:52;19.70;99.90
8824;DHT22;4448;50.904;4.694;2022-09-13T00:21:20;19.70;99.90
8824;DHT22;4448;50.904;4.694;2022-09-13T00:23:49;19.70;99.90
8824;DHT22;4448;50.904;4.694;2022-09-13T00:26:20;19.80;99.90
8824;DHT22;4448;50.904;4.694;2022-09-13T00:28:51;19.70;99.90
8824;DHT22;4448;50.904;4.694;2022-09-13T00:31:17;19.70;99.90
8824;DHT22;4448;50.904;4.694;2022-09-13T00:33:43;19.50;99.90
8824;DHT22;4448;50.904;4.694;2022-09-13T00:36:10;19.30;99.90
8824;DHT22;4448;50.904;4.694;2022-09-13T00:38:38;19.20;99.90
8824;DHT22;4448;50.904;4.694;2022-09-13T00:41:07;19.10;99.90
8824;DHT22;4448;50.904;4.694;2022-09-13T00:43:51;19.00;99.90
8824;DHT22;4448;50.904;4.694;2022-09-13T00:46:41;18.90;99.90
8824;DHT22;4448;50.904;4.694;2022-09-13T00:49:21;18.90;99.90
8824;DHT22;4448;50.904;4.694;2022-09-13T00:51:51;18.80;99.90
8824;DHT22;4448;50.904;4.694;2022-09-13T00:54:21;18.80;99.90
8824;DHT22;4448;50.904;4.694;2022-09-13T00:56:51;18.80;99.90
8824;DHT22;4448;50.904;4.694;2022-09-13T00:59:22;18.80;99.90
8824;DHT22;4448;50.904;4.694;2022-09-13T01:01:52;18.80;99.90
8824;DHT22;4448;50.904;4.694;2022-09-13T01:04:20;18.90;99.90
8824;DHT22;4448;50.904;4.694;2022-09-13T01:06:47;18.90;99.90
8824;DHT22;4448;50.904;4.694;2022-09-13T01:09:14;18.90;99.90
8824;DHT22;4448;50.904;4.694;2022-09-13T01:11:47;19.00;99.90
8824;DHT22;4448;50.904;4.694;2022-09-13T01:14:17;18.90;99.90
8824;DHT22;4448;50.904;4.694;2022-09-13T01:16:43;18.90;99.90
8824;DHT22;4448;50.904;4.694;2022-09-13T01:19:08;18.90;99.90
8824;DHT22;4448;50.904;4.694;2022-09-13T01:22:17;18.90;99.90
8824;DHT22;4448;50.904;4.694;2022-09-13T01:27:44;18.90;99.90
8824;DHT22;4448;50.904;4.694;2022-09-13T01:30:28;18.80;99.90
8824;DHT22;4448;50.904;4.694;2022-09-13T01:36:27;18.80;99.90
8824;DHT22;4448;50.904;4.694;2022-09-13T01:47:07;18.70;99.90
8824;DHT22;4448;50.904;4.694;2022-09-13T01:52:59;18.70;99.90
8824;DHT22;4448;50.904;4.694;2022-09-13T01:55:45;18.70;99.90
8824;DHT22;4448;50.904;4.694;2022-09-13T01:58:20;18.80;99.90
8824;DHT22;4448;50.904;4.694;2022-09-13T02:03:32;19.00;99.90
8824;DHT22;4448;50.904;4.694;2022-09-13T02:06:07;19.10;99.90
8824;DHT22;4448;50.904;4.694;2022-09-13T02:09:03;19.20;99.90
8824;DHT22;4448;50.904;4.694;2022-09-13T02:11:33;19.30;99.90
8824;DHT22;4448;50.904;4.694;2022-09-13T02:14:16;19.30;99.90
8824;DHT22;4448;50.904;4.694;2022-09-13T02:16:47;19.30;99.90
8824;DHT22;4448;50.904;4.694;2022-09-13T02:19:37;19.40;99.90
8824;DHT22;4448;50.904;4.694;2022-09-13T02:22:06;19.40;99.90
8824;DHT22;4448;50.904;4.694;2022-09-13T02:24:37;19.30;99.90
8824;DHT22;4448;50.904;4.694;2022-09-13T02:27:15;19.20;99.90
8824;DHT22;4448;50.904;4.694;2022-09-13T02:29:45;19.10;99.90
8824;DHT22;4448;50.904;4.694;2022-09-13T02:34:47;19.00;99.90
8824;DHT22;4448;50.904;4.694;2022-09-13T02:37:14;19.00;99.90
8824;DHT22;4448;50.904;4.694;2022-09-13T02:39:50;19.10;99.90
8824;DHT22;4448;50.904;4.694;2022-09-13T02:42:22;19.10;99.90
8824;DHT22;4448;50.904;4.694;2022-09-13T02:44:55;19.10;99.90
8824;DHT22;4448;50.904;4.694;2022-09-13T02:53:03;19.20;99.90
8824;DHT22;4448;50.904;4.694;2022-09-13T02:56:00;19.10;99.90
8824;DHT22;4448;50.904;4.694;2022-09-13T03:01:39;19.10;99.90
8824;DHT22;4448;50.904;4.694;2022-09-13T03:04:06;19.10;99.90
8824;DHT22;4448;50.904;4.694;2022-09-13T03:06:32;19.10;99.90
8824;DHT22;4448;50.904;4.694;2022-09-13T03:09:00;19.10;99.90
8824;DHT22;4448;50.904;4.694;2022-09-13T03:11:54;19.10;99.90
8824;DHT22;4448;50.904;4.694;2022-09-13T03:14:43;19.10;99.90
8824;DHT22;4448;50.904;4.694;2022-09-13T03:17:23;19.10;99.90
8824;DHT22;4448;50.904;4.694;2022-09-13T03:20:00;19.20;99.90
8824;DHT22;4448;50.904;4.694;2022-09-13T03:25:26;19.20;99.90
8824;DHT22;4448;50.904;4.694;2022-09-13T03:28:45;19.30;99.90
8824;DHT22;4448;50.904;4.694;2022-09-13T03:31:07;19.30;99.90
8824;DHT22;4448;50.904;4.694;2022-09-13T03:33:56;19.30;99.90
8824;DHT22;4448;50.904;4.694;2022-09-13T03:36:34;19.40;99.90
8824;DHT22;4448;50.904;4.694;2022-09-13T03:39:39;19.40;99.90
8824;DHT22;4448;50.904;4.694;2022-09-13T03:42:28;19.40;99.90
8824;DHT22;4448;50.904;4.694;2022-09-13T03:44:56;19.40;99.90
8824;DHT22;4448;50.904;4.694;2022-09-13T03:47:24;19.30;99.90
8824;DHT22;4448;50.904;4.694;2022-09-13T03:49:51;19.20;99.90
8824;DHT22;4448;50.904;4.694;2022-09-13T03:52:18;19.20;99.90
8824;DHT22;4448;50.904;4.694;2022-09-13T03:54:44;19.10;99.90
8824;DHT22;4448;50.904;4.694;2022-09-13T03:57:13;19.00;99.90
8824;DHT22;4448;50.904;4.694;2022-09-13T03:59:45;19.00;99.90
8824;DHT22;4448;50.904;4.694;2022-09-13T04:02:12;19.00;99.90
8824;DHT22;4448;50.904;4.694;2022-09-13T04:04:42;18.90;99.90
8824;DHT22;4448;50.904;4.694;2022-09-13T04:07:10;18.90;99.90
8824;DHT22;4448;50.904;4.694;2022-09-13T04:09:36;18.80;99.90
8824;DHT22;4448;50.904;4.694;2022-09-13T04:12:02;18.90;99.90
8824;DHT22;4448;50.904;4.694;2022-09-13T04:14:27;18.90;99.90
8824;DHT22;4448;50.904;4.694;2022-09-13T04:16:57;18.90;99.90
8824;DHT22;4448;50.904;4.694;2022-09-13T04:19:24;18.80;99.90
8824;DHT22;4448;50.904;4.694;2022-09-13T04:21:51;18.80;99.90
8824;DHT22;4448;50.904;4.694;2022-09-13T04:24:18;18.80;99.90
8824;DHT22;4448;50.904;4.694;2022-09-13T04:26:48;18.70;99.90
8824;DHT22;4448;50.904;4.694;2022-09-13T04:29:13;18.70;99.90
8824;DHT22;4448;50.904;4.694;2022-09-13T04:31:39;18.70;99.90
8824;DHT22;4448;50.904;4.694;2022-09-13T04:34:05;18.60;99.90
8824;DHT22;4448;50.904;4.694;2022-09-13T04:36:31;18.60;99.90
8824;DHT22;4448;50.904;4.694;2022-09-13T04:38:58;18.60;99.90
8824;DHT22;4448;50.904;4.694;2022-09-13T04:41:25;18.60;99.90
8824;DHT22;4448;50.904;4.694;2022-09-13T04:43:51;18.70;99.90
8824;DHT22;4448;50.904;4.694;2022-09-13T04:46:17;18.70;99.90
8824;DHT22;4448;50.904;4.694;2022-09-13T04:48:47;18.70;99.90
8824;DHT22;4448;50.904;4.694;2022-09-13T04:51:14;18.70;99.90
8824;DHT22;4448;50.904;4.694;2022-09-13T04:53:42;18.70;99.90
8824;DHT22;4448;50.904;4.694;2022-09-13T04:56:11;18.70;99.90
8824;DHT22;4448;50.904;4.694;2022-09-13T04:58:39;18.80;99.90
8824;DHT22;4448;50.904;4.694;2022-09-13T05:01:09;18.80;99.90
8824;DHT22;4448;50.904;4.694;2022-09-13T05:03:36;18.80;99.90
8824;DHT22;4448;50.904;4.694;2022-09-13T05:06:07;18.80;99.90
8824;DHT22;4448;50.904;4.694;2022-09-13T05:08:34;18.70;99.90
8824;DHT22;4448;50.904;4.694;2022-09-13T05:11:00;18.80;99.90
8824;DHT22;4448;50.904;4.694;2022-09-13T05:13:26;18.80;99.90
8824;DHT22;4448;50.904;4.694;2022-09-13T05:15:56;18.70;99.90
8824;DHT22;4448;50.904;4.694;2022-09-13T05:18:25;18.70;99.90
8824;DHT22;4448;50.904;4.694;2022-09-13T05:20:53;18.70;99.90
8824;DHT22;4448;50.904;4.694;2022-09-13T05:23:20;18.70;99.90
8824;DHT22;4448;50.904;4.694;2022-09-13T05:25:58;18.80;99.90
8824;DHT22;4448;50.904;4.694;2022-09-13T05:28:25;18.80;99.90
8824;DHT22;4448;50.904;4.694;2022-09-13T05:31:06;18.80;99.90
8824;DHT22;4448;50.904;4.694;2022-09-13T05:33:34;18.90;99.90
8824;DHT22;4448;50.904;4.694;2022-09-13T05:36:00;18.90;99.90
8824;DHT22;4448;50.904;4.694;2022-09-13T05:38:26;18.90;99.90
8824;DHT22;4448;50.904;4.694;2022-09-13T05:40:59;18.90;99.90
8824;DHT22;4448;50.904;4.694;2022-09-13T05:43:27;18.90;99.90
8824;DHT22;4448;50.904;4.694;2022-09-13T05:48:26;19.00;99.90
8824;DHT22;4448;50.904;4.694;2022-09-13T05:50:52;19.00;99.90
8824;DHT22;4448;50.904;4.694;2022-09-13T05:53:17;19.00;99.90
8824;DHT22;4448;50.904;4.694;2022-09-13T05:55:43;19.00;99.90
8824;DHT22;4448;50.904;4.694;2022-09-13T05:58:08;19.10;99.90
8824;DHT22;4448;50.904;4.694;2022-09-13T06:00:34;19.10;99.90
8824;DHT22;4448;50.904;4.694;2022-09-13T06:03:00;19.20;99.90
8824;DHT22;4448;50.904;4.694;2022-09-13T06:05:25;19.20;99.90
8824;DHT22;4448;50.904;4.694;2022-09-13T06:07:51;19.20;99.90
8824;DHT22;4448;50.904;4.694;2022-09-13T06:10:16;19.20;99.90
8824;DHT22;4448;50.904;4.694;2022-09-13T06:12:42;19.20;99.90
8824;DHT22;4448;50.904;4.694;2022-09-13T06:15:08;19.10;99.90
8824;DHT22;4448;50.904;4.694;2022-09-13T06:17:35;19.10;99.90
8824;DHT22;4448;50.904;4.694;2022-09-13T06:20:01;19.10;99.90
8824;DHT22;4448;50.904;4.694;2022-09-13T06:22:27;19.10;99.90
8824;DHT22;4448;50.904;4.694;2022-09-13T06:24:58;19.10;99.90
8824;DHT22;4448;50.904;4.694;2022-09-13T06:27:24;19.10;99.90
8824;DHT22;4448;50.904;4.694;2022-09-13T06:29:49;19.10;99.90
8824;DHT22;4448;50.904;4.694;2022-09-13T06:32:15;19.00;99.90
8824;DHT22;4448;50.904;4.694;2022-09-13T06:34:41;19.00;99.90
8824;DHT22;4448;50.904;4.694;2022-09-13T06:37:06;19.00;99.90
8824;DHT22;4448;50.904;4.694;2022-09-13T06:39:32;19.10;99.90
8824;DHT22;4448;50.904;4.694;2022-09-13T06:41:59;19.10;99.90
8824;DHT22;4448;50.904;4.694;2022-09-13T06:44:24;19.20;99.90
8824;DHT22;4448;50.904;4.694;2022-09-13T06:46:50;19.20;99.90
8824;DHT22;4448;50.904;4.694;2022-09-13T06:49:16;19.30;99.90
8824;DHT22;4448;50.904;4.694;2022-09-13T06:51:41;19.30;99.90
8824;DHT22;4448;50.904;4.694;2022-09-13T06:54:07;19.30;99.90
8824;DHT22;4448;50.904;4.694;2022-09-13T06:56:34;19.40;99.90
8824;DHT22;4448;50.904;4.694;2022-09-13T06:59:03;19.40;99.90
8824;DHT22;4448;50.904;4.694;2022-09-13T07:01:32;19.50;99.90
8824;DHT22;4448;50.904;4.694;2022-09-13T07:04:17;19.50;99.90
8824;DHT22;4448;50.904;4.694;2022-09-13T07:06:47;19.70;99.90
8824;DHT22;4448;50.904;4.694;2022-09-13T07:09:22;19.80;99.90
8824;DHT22;4448;50.904;4.694;2022-09-13T07:11:49;19.90;99.90
8824;DHT22;4448;50.904;4.694;2022-09-13T07:14:18;20.00;99.90
8824;DHT22;4448;50.904;4.694;2022-09-13T07:16:44;20.10;99.90
8824;DHT22;4448;50.904;4.694;2022-09-13T07:19:13;20.30;99.90
8824;DHT22;4448;50.904;4.694;2022-09-13T07:21:40;20.60;99.90
8824;DHT22;4448;50.904;4.694;2022-09-13T07:24:06;20.90;99.90
8824;DHT22;4448;50.904;4.694;2022-09-13T07:26:32;21.10;99.90
8824;DHT22;4448;50.904;4.694;2022-09-13T07:29:00;21.30;99.90
8824;DHT22;4448;50.904;4.694;2022-09-13T07:31:32;21.50;99.90
8824;DHT22;4448;50.904;4.694;2022-09-13T07:34:00;21.80;99.90
8824;DHT22;4448;50.904;4.694;2022-09-13T07:36:27;21.90;99.90
8824;DHT22;4448;50.904;4.694;2022-09-13T07:38:53;22.00;99.90
8824;DHT22;4448;50.904;4.694;2022-09-13T07:41:20;22.10;99.90
8824;DHT22;4448;50.904;4.694;2022-09-13T07:43:47;22.20;99.90
8824;DHT22;4448;50.904;4.694;2022-09-13T07:46:18;22.30;99.90
8824;DHT22;4448;50.904;4.694;2022-09-13T07:48:44;22.40;99.90
8824;DHT22;4448;50.904;4.694;2022-09-13T07:51:19;22.40;99.90
8824;DHT22;4448;50.904;4.694;2022-09-13T07:53:46;22.40;99.90
8824;DHT22;4448;50.904;4.694;2022-09-13T07:56:14;22.40;99.90
8824;DHT22;4448;50.904;4.694;2022-09-13T07:58:42;22.50;99.90
8824;DHT22;4448;50.904;4.694;2022-09-13T08:01:19;22.60;99.90
8824;DHT22;4448;50.904;4.694;2022-09-13T08:04:03;22.60;99.90
8824;DHT22;4448;50.904;4.694;2022-09-13T08:06:30;22.80;99.90
8824;DHT22;4448;50.904;4.694;2022-09-13T08:08:57;22.90;99.90
8824;DHT22;4448;50.904;4.694;2022-09-13T08:11:28;23.10;99.90
8824;DHT22;4448;50.904;4.694;2022-09-13T08:13:54;23.50;99.90
8824;DHT22;4448;50.904;4.694;2022-09-13T08:16:21;24.10;99.90
8824;DHT22;4448;50.904;4.694;2022-09-13T08:18:54;25.00;99.90
8824;DHT22;4448;50.904;4.694;2022-09-13T08:21:20;25.50;99.90
8824;DHT22;4448;50.904;4.694;2022-09-13T08:23:46;25.80;99.90
8824;DHT22;4448;50.904;4.694;2022-09-13T08:26:13;26.10;99.90
8824;DHT22;4448;50.904;4.694;2022-09-13T08:28:39;26.30;99.90
8824;DHT22;4448;50.904;4.694;2022-09-13T08:33:32;26.40;99.90
8824;DHT22;4448;50.904;4.694;2022-09-13T08:35:58;26.30;99.90
8824;DHT22;4448;50.904;4.694;2022-09-13T08:38:24;26.10;99.90
8824;DHT22;4448;50.904;4.694;2022-09-13T08:40:54;25.90;99.90
8824;DHT22;4448;50.904;4.694;2022-09-13T08:48:32;25.40;99.90
8824;DHT22;4448;50.904;4.694;2022-09-13T08:51:05;25.40;99.90
8824;DHT22;4448;50.904;4.694;2022-09-13T08:53:42;25.30;99.90
8824;DHT22;4448;50.904;4.694;2022-09-13T08:56:19;25.20;99.90
8824;DHT22;4448;50.904;4.694;2022-09-13T09:07:15;25.00;99.90
8824;DHT22;4448;50.904;4.694;2022-09-13T09:09:53;25.10;99.90
8824;DHT22;4448;50.904;4.694;2022-09-13T09:17:57;25.80;99.90
8824;DHT22;4448;50.904;4.694;2022-09-13T09:20:42;25.90;99.90
8824;DHT22;4448;50.904;4.694;2022-09-13T09:23:16;26.10;99.90
8824;DHT22;4448;50.904;4.694;2022-09-13T09:25:43;26.30;99.90
8824;DHT22;4448;50.904;4.694;2022-09-13T09:28:14;26.40;99.90
8824;DHT22;4448;50.904;4.694;2022-09-13T09:30:56;26.50;99.90
8824;DHT22;4448;50.904;4.694;2022-09-13T09:33:34;26.70;99.90
8824;DHT22;4448;50.904;4.694;2022-09-13T09:36:14;27.10;99.90
8824;DHT22;4448;50.904;4.694;2022-09-13T09:38:43;27.20;99.90
8824;DHT22;4448;50.904;4.694;2022-09-13T09:41:14;27.00;99.90
8824;DHT22;4448;50.904;4.694;2022-09-13T09:44:05;26.90;99.90
8824;DHT22;4448;50.904;4.694;2022-09-13T09:46:37;26.90;99.90
8824;DHT22;4448;50.904;4.694;2022-09-13T09:49:16;26.90;99.90
8824;DHT22;4448;50.904;4.694;2022-09-13T09:52:03;26.80;99.90
8824;DHT22;4448;50.904;4.694;2022-09-13T09:54:33;26.80;99.90
8824;DHT22;4448;50.904;4.694;2022-09-13T09:57:00;26.80;99.90
8824;DHT22;4448;50.904;4.694;2022-09-13T09:59:28;26.80;99.90
8824;DHT22;4448;50.904;4.694;2022-09-13T10:01:57;26.80;99.90
8824;DHT22;4448;50.904;4.694;2022-09-13T10:04:24;26.70;99.90
8824;DHT22;4448;50.904;4.694;2022-09-13T10:07:08;26.60;99.90
8824;DHT22;4448;50.904;4.694;2022-09-13T10:09:35;26.50;99.90
8824;DHT22;4448;50.904;4.694;2022-09-13T10:12:03;26.50;99.90
8824;DHT22;4448;50.904;4.694;2022-09-13T10:14:41;26.60;99.90
8824;DHT22;4448;50.904;4.694;2022-09-13T10:17:23;26.80;99.90
8824;DHT22;4448;50.904;4.694;2022-09-13T10:22:33;27.40;99.90
8824;DHT22;4448;50.904;4.694;2022-09-13T10:25:21;27.40;99.90
8824;DHT22;4448;50.904;4.694;2022-09-13T10:27:52;27.30;99.90
8824;DHT22;4448;50.904;4.694;2022-09-13T10:33:03;27.00;99.90
8824;DHT22;4448;50.904;4.694;2022-09-13T10:35:30;26.90;99.90
8824;DHT22;4448;50.904;4.694;2022-09-13T10:37:57;26.90;99.90
8824;DHT22;4448;50.904;4.694;2022-09-13T10:40:31;26.70;99.90
8824;DHT22;4448;50.904;4.694;2022-09-13T10:43:05;26.60;99.90
8824;DHT22;4448;50.904;4.694;2022-09-13T10:45:39;26.40;99.90
8824;DHT22;4448;50.904;4.694;2022-09-13T10:48:13;26.30;99.90
8824;DHT22;4448;50.904;4.694;2022-09-13T10:50:40;26.10;99.90
8824;DHT22;4448;50.904;4.694;2022-09-13T10:55:57;26.00;99.90
8824;DHT22;4448;50.904;4.694;2022-09-13T10:58:23;26.00;99.90
8824;DHT22;4448;50.904;4.694;2022-09-13T11:09:10;26.50;99.90
8824;DHT22;4448;50.904;4.694;2022-09-13T11:30:24;28.80;99.90
8824;DHT22;4448;50.904;4.694;2022-09-13T11:36:44;28.50;99.90
8824;DHT22;4448;50.904;4.694;2022-09-13T11:49:48;28.90;99.90
8824;DHT22;4448;50.904;4.694;2022-09-13T11:55:34;28.70;99.90
8824;DHT22;4448;50.904;4.694;2022-09-13T11:58:11;28.50;99.90
8824;DHT22;4448;50.904;4.694;2022-09-13T12:00:45;28.30;99.90
8824;DHT22;4448;50.904;4.694;2022-09-13T12:05:57;27.80;99.90
8824;DHT22;4448;50.904;4.694;2022-09-13T12:08:34;27.70;99.90
8824;DHT22;4448;50.904;4.694;2022-09-13T12:13:34;27.70;99.90
8824;DHT22;4448;50.904;4.694;2022-09-13T12:16:07;27.60;99.90
8824;DHT22;4448;50.904;4.694;2022-09-13T12:18:52;27.70;99.90
8824;DHT22;4448;50.904;4.694;2022-09-13T12:21:23;27.80;99.90
8824;DHT22;4448;50.904;4.694;2022-09-13T12:24:20;27.90;99.90
8824;DHT22;4448;50.904;4.694;2022-09-13T12:27:30;27.80;99.90
8824;DHT22;4448;50.904;4.694;2022-09-13T12:30:22;27.60;99.90
8824;DHT22;4448;50.904;4.694;2022-09-13T12:32:51;27.50;99.90
8824;DHT22;4448;50.904;4.694;2022-09-13T12:40:56;27.00;99.90
8824;DHT22;4448;50.904;4.694;2022-09-13T12:57:44;26.60;99.90
8824;DHT22;4448;50.904;4.694;2022-09-13T13:00:25;26.50;99.90
8824;DHT22;4448;50.904;4.694;2022-09-13T13:03:03;26.40;99.90
8824;DHT22;4448;50.904;4.694;2022-09-13T13:05:47;26.30;99.90
8824;DHT22;4448;50.904;4.694;2022-09-13T13:14:00;26.10;99.90
8824;DHT22;4448;50.904;4.694;2022-09-13T13:16:38;26.00;99.90
8824;DHT22;4448;50.904;4.694;2022-09-13T13:21:54;25.90;99.90
8824;DHT22;4448;50.904;4.694;2022-09-13T13:26:49;25.70;99.90
8824;DHT22;4448;50.904;4.694;2022-09-13T13:29:21;25.70;99.90
8824;DHT22;4448;50.904;4.694;2022-09-13T13:34:29;25.70;99.90
8824;DHT22;4448;50.904;4.694;2022-09-13T13:37:26;25.60;99.90
8824;DHT22;4448;50.904;4.694;2022-09-13T13:40:18;25.60;99.90
8824;DHT22;4448;50.904;4.694;2022-09-13T13:42:45;25.60;99.90
8824;DHT22;4448;50.904;4.694;2022-09-13T13:45:23;25.50;99.90
8824;DHT22;4448;50.904;4.694;2022-09-13T13:47:54;25.50;99.90
8824;DHT22;4448;50.904;4.694;2022-09-13T13:50:19;25.40;99.90
8824;DHT22;4448;50.904;4.694;2022-09-13T13:58:30;25.20;99.90
8824;DHT22;4448;50.904;4.694;2022-09-13T14:01:00;25.20;99.90
8824;DHT22;4448;50.904;4.694;2022-09-13T14:06:47;25.10;99.90
8824;DHT22;4448;50.904;4.694;2022-09-13T14:09:53;25.00;99.90
8824;DHT22;4448;50.904;4.694;2022-09-13T14:12:32;24.90;99.90
8824;DHT22;4448;50.904;4.694;2022-09-13T14:15:29;24.80;99.90
8824;DHT22;4448;50.904;4.694;2022-09-13T14:18:03;24.70;99.90
8824;DHT22;4448;50.904;4.694;2022-09-13T14:20:34;24.70;99.90
8824;DHT22;4448;50.904;4.694;2022-09-13T14:23:18;24.60;99.90
8824;DHT22;4448;50.904;4.694;2022-09-13T14:25:44;24.60;99.90
8824;DHT22;4448;50.904;4.694;2022-09-13T14:28:16;24.40;99.90
8824;DHT22;4448;50.904;4.694;2022-09-13T14:30:44;24.30;99.90
8824;DHT22;4448;50.904;4.694;2022-09-13T14:33:32;24.30;99.90
8824;DHT22;4448;50.904;4.694;2022-09-13T14:36:13;24.20;99.90
8824;DHT22;4448;50.904;4.694;2022-09-13T14:38:47;24.00;99.90
8824;DHT22;4448;50.904;4.694;2022-09-13T14:41:16;23.90;99.90
8824;DHT22;4448;50.904;4.694;2022-09-13T14:43:43;24.00;99.90
8824;DHT22;4448;50.904;4.694;2022-09-13T14:46:24;23.90;99.90
8824;DHT22;4448;50.904;4.694;2022-09-13T14:49:00;23.80;99.90
8824;DHT22;4448;50.904;4.694;2022-09-13T14:51:34;23.80;99.90
8824;DHT22;4448;50.904;4.694;2022-09-13T14:54:25;23.70;99.90
8824;DHT22;4448;50.904;4.694;2022-09-13T14:56:55;23.60;99.90
8824;DHT22;4448;50.904;4.694;2022-09-13T14:59:57;23.40;99.90
8824;DHT22;4448;50.904;4.694;2022-09-13T15:02:36;23.40;99.90
8824;DHT22;4448;50.904;4.694;2022-09-13T15:05:06;23.30;99.90
8824;DHT22;4448;50.904;4.694;2022-09-13T15:07:38;23.30;99.90
8824;DHT22;4448;50.904;4.694;2022-09-13T15:18:01;23.20;99.90
8824;DHT22;4448;50.904;4.694;2022-09-13T15:26:11;23.10;99.90
8824;DHT22;4448;50.904;4.694;2022-09-13T15:28:57;23.10;99.90
8824;DHT22;4448;50.904;4.694;2022-09-13T15:34:19;23.20;99.90
8824;DHT22;4448;50.904;4.694;2022-09-13T15:37:10;23.10;99.90
8824;DHT22;4448;50.904;4.694;2022-09-13T15:39:48;23.10;99.90
8824;DHT22;4448;50.904;4.694;2022-09-13T15:42:15;23.10;99.90
8824;DHT22;4448;50.904;4.694;2022-09-13T15:44:42;23.10;99.90
8824;DHT22;4448;50.904;4.694;2022-09-13T15:47:16;23.10;99.90
8824;DHT22;4448;50.904;4.694;2022-09-13T15:49:48;23.20;99.90
8824;DHT22;4448;50.904;4.694;2022-09-13T15:52:15;23.20;99.90
8824;DHT22;4448;50.904;4.694;2022-09-13T15:54:42;23.20;99.90
8824;DHT22;4448;50.904;4.694;2022-09-13T15:57:37;23.20;99.90
8824;DHT22;4448;50.904;4.694;2022-09-13T16:00:03;23.10;99.90
8824;DHT22;4448;50.904;4.694;2022-09-13T16:02:32;23.20;99.90
8824;DHT22;4448;50.904;4.694;2022-09-13T16:04:58;23.20;99.90
8824;DHT22;4448;50.904;4.694;2022-09-13T16:07:24;23.20;99.90
8824;DHT22;4448;50.904;4.694;2022-09-13T16:09:51;23.20;99.90
8824;DHT22;4448;50.904;4.694;2022-09-13T16:12:17;23.10;99.90
8824;DHT22;4448;50.904;4.694;2022-09-13T16:14:44;23.10;99.90
8824;DHT22;4448;50.904;4.694;2022-09-13T16:17:24;23.00;99.90
8824;DHT22;4448;50.904;4.694;2022-09-13T16:19:52;23.00;99.90
8824;DHT22;4448;50.904;4.694;2022-09-13T16:22:17;22.90;99.90
8824;DHT22;4448;50.904;4.694;2022-09-13T16:24:43;22.90;99.90
8824;DHT22;4448;50.904;4.694;2022-09-13T16:27:12;22.90;99.90
8824;DHT22;4448;50.904;4.694;2022-09-13T16:29:38;22.90;99.90
8824;DHT22;4448;50.904;4.694;2022-09-13T16:32:04;22.90;99.90
8824;DHT22;4448;50.904;4.694;2022-09-13T16:34:30;22.80;99.90
8824;DHT22;4448;50.904;4.694;2022-09-13T16:36:56;22.60;99.90
8824;DHT22;4448;50.904;4.694;2022-09-13T16:39:21;22.60;99.90
8824;DHT22;4448;50.904;4.694;2022-09-13T16:41:47;22.50;99.90
8824;DHT22;4448;50.904;4.694;2022-09-13T16:44:13;22.50;99.90
8824;DHT22;4448;50.904;4.694;2022-09-13T16:46:39;22.40;99.90
8824;DHT22;4448;50.904;4.694;2022-09-13T16:49:05;22.30;99.90
8824;DHT22;4448;50.904;4.694;2022-09-13T16:51:30;22.10;99.90
8824;DHT22;4448;50.904;4.694;2022-09-13T16:53:56;22.10;99.90
8824;DHT22;4448;50.904;4.694;2022-09-13T16:56:23;22.00;99.90
8824;DHT22;4448;50.904;4.694;2022-09-13T16:58:50;21.90;99.90
8824;DHT22;4448;50.904;4.694;2022-09-13T17:01:25;21.80;99.90
8824;DHT22;4448;50.904;4.694;2022-09-13T17:03:51;21.70;99.90
8824;DHT22;4448;50.904;4.694;2022-09-13T17:06:18;21.60;99.90
8824;DHT22;4448;50.904;4.694;2022-09-13T17:08:51;21.40;99.90
8824;DHT22;4448;50.904;4.694;2022-09-13T17:11:20;21.20;99.90
8824;DHT22;4448;50.904;4.694;2022-09-13T17:13:46;20.90;99.90
8824;DHT22;4448;50.904;4.694;2022-09-13T17:18:47;20.60;99.90
8824;DHT22;4448;50.904;4.694;2022-09-13T17:21:13;20.50;99.90
8824;DHT22;4448;50.904;4.694;2022-09-13T17:23:38;20.40;99.90
8824;DHT22;4448;50.904;4.694;2022-09-13T17:26:04;20.30;99.90
8824;DHT22;4448;50.904;4.694;2022-09-13T17:28:30;20.20;99.90
8824;DHT22;4448;50.904;4.694;2022-09-13T17:30:55;20.20;99.90
8824;DHT22;4448;50.904;4.694;2022-09-13T17:33:21;20.10;99.90
8824;DHT22;4448;50.904;4.694;2022-09-13T17:35:57;20.20;99.90
8824;DHT22;4448;50.904;4.694;2022-09-13T17:38:23;20.20;99.90
8824;DHT22;4448;50.904;4.694;2022-09-13T17:40:58;20.20;99.90
8824;DHT22;4448;50.904;4.694;2022-09-13T17:43:24;20.10;99.90
8824;DHT22;4448;50.904;4.694;2022-09-13T17:45:49;20.30;99.90
8824;DHT22;4448;50.904;4.694;2022-09-13T17:48:15;20.30;99.90
8824;DHT22;4448;50.904;4.694;2022-09-13T17:50:40;20.20;99.90
8824;DHT22;4448;50.904;4.694;2022-09-13T17:53:06;20.20;99.90
8824;DHT22;4448;50.904;4.694;2022-09-13T17:55:32;20.20;99.90
8824;DHT22;4448;50.904;4.694;2022-09-13T17:57:57;20.20;99.90
8824;DHT22;4448;50.904;4.694;2022-09-13T18:00:23;20.20;99.90
8824;DHT22;4448;50.904;4.694;2022-09-13T18:02:49;20.20;99.90
8824;DHT22;4448;50.904;4.694;2022-09-13T18:05:14;20.20;99.90
8824;DHT22;4448;50.904;4.694;2022-09-13T18:07:40;20.10;99.90
8824;DHT22;4448;50.904;4.694;2022-09-13T18:10:06;20.10;99.90
8824;DHT22;4448;50.904;4.694;2022-09-13T18:12:32;20.00;99.90
8824;DHT22;4448;50.904;4.694;2022-09-13T18:14:57;20.00;99.90
8824;DHT22;4448;50.904;4.694;2022-09-13T18:17:24;19.90;99.90
8824;DHT22;4448;50.904;4.694;2022-09-13T18:19:49;20.00;99.90
8824;DHT22;4448;50.904;4.694;2022-09-13T18:22:15;20.00;99.90
8824;DHT22;4448;50.904;4.694;2022-09-13T18:24:42;20.00;99.90
8824;DHT22;4448;50.904;4.694;2022-09-13T18:27:08;20.00;99.90
8824;DHT22;4448;50.904;4.694;2022-09-13T18:29:33;19.90;99.90
8824;DHT22;4448;50.904;4.694;2022-09-13T18:31:59;19.90;99.90
8824;DHT22;4448;50.904;4.694;2022-09-13T18:34:25;19.80;99.90
8824;DHT22;4448;50.904;4.694;2022-09-13T18:36:50;19.80;99.90
8824;DHT22;4448;50.904;4.694;2022-09-13T18:39:18;19.70;99.90
8824;DHT22;4448;50.904;4.694;2022-09-13T18:41:45;19.60;99.90
8824;DHT22;4448;50.904;4.694;2022-09-13T18:44:12;19.60;99.90
8824;DHT22;4448;50.904;4.694;2022-09-13T18:46:38;19.60;99.90
8824;DHT22;4448;50.904;4.694;2022-09-13T18:49:05;19.60;99.90
8824;DHT22;4448;50.904;4.694;2022-09-13T18:51:35;19.50;99.90
8824;DHT22;4448;50.904;4.694;2022-09-13T18:54:02;19.50;99.90
8824;DHT22;4448;50.904;4.694;2022-09-13T18:56:28;19.50;99.90
8824;DHT22;4448;50.904;4.694;2022-09-13T18:58:55;19.40;99.90
8824;DHT22;4448;50.904;4.694;2022-09-13T19:01:25;19.40;99.90
8824;DHT22;4448;50.904;4.694;2022-09-13T19:04:01;19.40;99.90
8824;DHT22;4448;50.904;4.694;2022-09-13T19:06:29;19.40;99.90
8824;DHT22;4448;50.904;4.694;2022-09-13T19:08:56;19.40;99.90
8824;DHT22;4448;50.904;4.694;2022-09-13T19:11:24;19.40;99.90
8824;DHT22;4448;50.904;4.694;2022-09-13T19:13:50;19.40;99.90
8824;DHT22;4448;50.904;4.694;2022-09-13T19:16:17;19.40;99.90
8824;DHT22;4448;50.904;4.694;2022-09-13T19:18:44;19.40;99.90
8824;DHT22;4448;50.904;4.694;2022-09-13T19:21:19;19.40;99.90
8824;DHT22;4448;50.904;4.694;2022-09-13T19:23:46;19.30;99.90
8824;DHT22;4448;50.904;4.694;2022-09-13T19:26:21;19.40;99.90